Terminal Aerodrome Forecast
Issued by NWS

Home | Current Version | Previous Version | Graphics & Text | Print | Product List | Glossary On
Versions: 1 2 3 4 5 6 7 8 9 10 11 12 13 14 15 16 17 18 19 20 21 22 23 24 25 26 27 28 29 30 31 32 33 34 35
000
FTUS45 KGGW 212241 AAB
TAFGDV
TAF AMD
KGDV 212241Z 2123/2218 24011KT P6SM -TSRA OVC040CB
     FM220100 27007KT P6SM OVC050
     FM220500 35006KT P6SM BKN035
     FM220600 36006KT P6SM VCSH BKN020 BKN023
     FM220900 35004KT 6SM -RASN BKN015=

USA.gov is the U.S. government's official web portal to all federal, state and local government web resources and services.